map of MQM home
MQM - Airport
Location
City:  Mardin, Mardin, Turkey
ICAO:LTCR
IATA:MQM

Details
Type:Airport (Aerodrome, Airfield)
Latitude:3713'24"N (37.223336)
Longitude:4037'54"E (40.631667)
Datum:WGS 1984
Elevation:1729 ft (527 m)
Variation:5.59E (WMM2015 magnetic declination)
0.08 annual change
Runways:1
Longest:8204 × 118 ft (2501 × 36 m), paved

Time
Time Zone:UTC+3
Local Time:

Weather
METAR:LTCR 210950Z VRB03KT CAVOK 08/M01 Q1023

Related Locations
Nearby:
Farthest:GMR: 11421 mi / 18380 km
Mangareva [Totegegie], Gambier Islands, PF

Find:

   beyond  
but within

Other Information
Maps:
NOTAMs:
Links:
Sources:

  
  • flag of Turkey
  

Sectional Chart

Flight Planning
at skyvector.com

Satellite Image

Google Maps Satellite view

 

Copyright © 2004-2019 Karl L. Swartz. All rights reserved.
The Great Circle Mapper name and logo are trademarks of the Great Circle Mapper.
All other trademarks mentioned herein belong to their respective owners.
Please see credits for attibutions and further copyright information.

  Follow gcmap on Facebook Follow gcmap on Twitter Follow gcmap on Google+ GCmap on LinkedIn

hCard Microformat

Geo Microformat